Time;durP1;ratioP1;P1;durP2;ratioP2;P2;SDS_P1;SDS_P2;PMS_P1;PMS_P2;Temp;Humidity;BMP_temperature;BMP_pressure;BME280_temperature;BME280_humidity;BME280_pressure;Samples;Min_cycle;Max_cycle;Signal;HPM_P1;HPM_P2
2021/07/28 00:05:57;;;;;;;11.23;6.70;;;16.10;99.90;;;;;;6701689;88;20201;-78
2021/07/28 00:15:58;;;;;;;10.43;5.80;;;16.10;99.90;;;;;;6701999;88;20551;-78
2021/07/28 00:25:58;;;;;;;8.10;5.43;;;16.10;99.90;;;;;;6702437;88;20205;-77
2021/07/28 00:35:59;;;;;;;8.23;5.47;;;16.10;99.90;;;;;;6701882;88;20206;-78
2021/07/28 00:45:59;;;;;;;10.15;5.72;;;16.20;99.90;;;;;;6701351;88;20187;-78
2021/07/28 00:56:00;;;;;;;9.88;5.60;;;16.30;99.90;;;;;;6702499;88;20650;-78
2021/07/28 01:06:01;;;;;;;11.32;6.10;;;16.30;99.90;;;;;;6701882;88;20203;-76
2021/07/28 01:16:09;;;;;;;9.35;5.78;;;16.30;99.90;;;;;;6642545;88;20189;-76
2021/07/28 01:26:10;;;;;;;9.65;6.45;;;16.20;99.90;;;;;;6686299;88;20268;-78
2021/07/28 01:36:14;;;;;;;12.23;6.35;;;16.20;99.90;;;;;;6698748;88;20197;-76
2021/07/28 01:46:14;;;;;;;12.52;7.07;;;16.20;99.90;;;;;;6701197;88;20223;-77
2021/07/28 01:56:17;;;;;;;13.02;7.47;;;16.20;99.90;;;;;;6701006;88;20314;-77
2021/07/28 02:06:17;;;;;;;11.15;7.80;;;16.20;99.90;;;;;;6701441;88;20272;-77
2021/07/28 02:16:18;;;;;;;13.62;7.57;;;16.20;99.90;;;;;;6637555;88;20207;-75
2021/07/28 02:26:18;;;;;;;16.37;8.15;;;16.30;99.90;;;;;;6626122;89;20267;-76
2021/07/28 02:36:19;;;;;;;17.05;7.87;;;16.20;99.90;;;;;;6627616;89;20217;-77
2021/07/28 02:46:21;;;;;;;14.20;7.70;;;16.30;99.90;;;;;;6629428;89;20213;-76
2021/07/28 02:56:21;;;;;;;12.35;7.30;;;16.30;99.90;;;;;;6640675;88;20256;-77
2021/07/28 03:06:22;;;;;;;12.93;7.65;;;16.30;99.90;;;;;;6700568;88;20214;-76
2021/07/28 03:16:23;;;;;;;17.90;8.48;;;16.20;99.90;;;;;;6697714;88;20733;-76
2021/07/28 03:26:23;;;;;;;13.45;8.27;;;16.10;99.90;;;;;;6698329;88;20207;-75
2021/07/28 03:36:24;;;;;;;16.02;8.63;;;16.10;99.90;;;;;;6697584;88;20236;-75
2021/07/28 03:46:24;;;;;;;17.27;9.30;;;16.10;99.90;;;;;;6697824;88;20258;-75
2021/07/28 03:56:25;;;;;;;15.60;9.45;;;15.90;99.90;;;;;;6698421;88;20289;-77
2021/07/28 04:06:25;;;;;;;16.67;10.10;;;15.80;99.90;;;;;;6698010;88;20650;-75
2021/07/28 04:16:26;;;;;;;13.90;9.25;;;15.80;99.90;;;;;;6716460;88;20335;-74
2021/07/28 04:26:26;;;;;;;20.05;9.02;;;15.80;99.90;;;;;;6700289;88;20225;-74
2021/07/28 04:36:27;;;;;;;12.80;8.38;;;15.90;99.90;;;;;;6720180;88;20198;-75
2021/07/28 04:46:27;;;;;;;16.52;8.20;;;16.00;99.90;;;;;;6696949;88;20211;-75
2021/07/28 04:56:28;;;;;;;16.80;7.90;;;16.10;99.90;;;;;;6696789;88;20293;-77
2021/07/28 05:06:28;;;;;;;12.63;7.65;;;16.20;99.90;;;;;;6696594;88;20193;-76
2021/07/28 05:16:29;;;;;;;13.00;6.97;;;16.30;99.90;;;;;;6696326;88;20209;-76
2021/07/28 05:26:30;;;;;;;12.37;6.80;;;16.40;99.90;;;;;;6696738;88;20178;-75
2021/07/28 05:36:30;;;;;;;12.25;6.40;;;16.50;99.90;;;;;;6678701;88;20203;-75
2021/07/28 05:46:31;;;;;;;12.10;6.70;;;16.80;99.90;;;;;;6696329;88;20244;-76
2021/07/28 05:56:31;;;;;;;10.35;6.43;;;16.90;99.90;;;;;;6706155;88;20536;-76
2021/07/28 06:06:32;;;;;;;11.30;7.03;;;17.10;99.90;;;;;;6696908;88;20251;-76
2021/07/28 06:16:33;;;;;;;11.88;6.47;;;17.20;99.90;;;;;;6698456;88;20215;-76
2021/07/28 06:26:33;;;;;;;11.23;6.20;;;17.50;99.90;;;;;;6699348;88;20211;-76
2021/07/28 06:36:36;;;;;;;12.15;6.32;;;17.70;99.90;;;;;;6698443;88;20672;-77
2021/07/28 06:46:36;;;;;;;11.15;6.57;;;17.70;99.90;;;;;;6698499;88;20230;-76
2021/07/28 06:56:37;;;;;;;15.32;7.12;;;18.00;99.90;;;;;;6697980;88;20684;-76
2021/07/28 07:06:37;;;;;;;14.38;6.57;;;18.10;99.90;;;;;;6698303;88;20288;-75
2021/07/28 07:16:38;;;;;;;11.45;5.87;;;18.20;99.90;;;;;;6697582;88;20265;-75
2021/07/28 07:26:38;;;;;;;9.75;5.40;;;18.90;99.90;;;;;;6697375;88;21044;-75
2021/07/28 07:36:40;;;;;;;8.40;5.10;;;19.20;99.90;;;;;;6697001;88;20264;-76
2021/07/28 07:46:40;;;;;;;11.40;5.10;;;19.20;99.90;;;;;;6696894;88;20205;-76
2021/07/28 07:56:41;;;;;;;9.27;5.20;;;19.40;99.90;;;;;;6697570;88;20205;-75
2021/07/28 08:06:41;;;;;;;7.95;4.60;;;19.50;99.90;;;;;;6697238;88;20569;-75
2021/07/28 08:16:42;;;;;;;7.60;4.82;;;19.90;99.90;;;;;;6696919;88;20196;-77
2021/07/28 08:26:43;;;;;;;7.90;3.92;;;20.70;99.90;;;;;;6696707;88;20249;-76
2021/07/28 08:36:43;;;;;;;6.80;4.32;;;21.00;99.90;;;;;;6698027;88;20189;-77
2021/07/28 08:46:44;;;;;;;7.53;4.70;;;21.30;99.90;;;;;;6700962;88;20682;-78
2021/07/28 08:56:46;;;;;;;9.02;4.30;;;21.90;99.90;;;;;;6712287;88;20793;-75
2021/07/28 09:06:47;;;;;;;5.72;3.90;;;21.10;99.90;;;;;;6706068;88;20202;-75
2021/07/28 09:16:48;;;;;;;4.80;2.70;;;21.10;99.90;;;;;;6648743;88;20197;-76
2021/07/28 09:26:52;;;;;;;4.05;2.00;;;22.60;99.90;;;;;;6702009;88;20189;-77
2021/07/28 09:36:54;;;;;;;2.75;2.10;;;22.50;99.90;;;;;;6705659;88;20196;-77
2021/07/28 09:47:08;;;;;;;3.12;2.03;;;22.50;99.90;;;;;;6716387;88;20213;-75
2021/07/28 09:57:12;;;;;;;;;;;22.70;99.90;;;;;;6711244;88;20181;-77
2021/07/28 10:07:16;;;;;;;3.03;1.90;;;23.00;99.90;;;;;;6726200;88;20065;-73
2021/07/28 10:17:17;;;;;;;5.47;2.10;;;23.10;99.90;;;;;;6688822;89;20202;-75
2021/07/28 10:27:18;;;;;;;3.30;2.12;;;23.30;99.90;;;;;;6702551;88;20264;-77
2021/07/28 10:37:28;;;;;;;2.83;2.20;;;23.90;99.90;;;;;;6704661;88;20276;-77
2021/07/28 10:47:43;;;;;;;3.12;2.00;;;25.50;99.90;;;;;;6704083;88;20557;-75
2021/07/28 10:57:52;;;;;;;3.80;2.03;;;24.00;99.90;;;;;;6705178;88;20240;-76
2021/07/28 11:07:59;;;;;;;4.20;1.90;;;23.80;99.90;;;;;;6688251;88;20191;-78
2021/07/28 11:18:00;;;;;;;5.50;2.10;;;24.10;99.90;;;;;;6678302;88;20198;-77
2021/07/28 11:28:05;;;;;;;4.37;2.00;;;23.90;99.90;;;;;;6708062;88;20206;-78
2021/07/28 11:38:16;;;;;;;2.28;1.67;;;23.90;99.90;;;;;;6708394;88;20646;-78
2021/07/28 11:48:44;;;;;;;5.10;2.00;;;23.70;99.90;;;;;;6694129;88;20299;-77
2021/07/28 11:58:49;;;;;;;3.12;1.90;;;23.70;99.90;;;;;;6707800;88;20806;-77
2021/07/28 12:09:03;;;;;;;5.45;2.10;;;24.20;99.90;;;;;;6699564;88;21169;-76
2021/07/28 12:19:05;;;;;;;;;;;25.00;99.90;;;;;;6640216;89;20229;-76
2021/07/28 12:29:05;;;;;;;2.67;1.58;;;24.40;99.90;;;;;;6670429;88;20542;-77
2021/07/28 12:39:06;;;;;;;2.85;1.30;;;25.50;98.50;;;;;;6708044;88;20219;-77
2021/07/28 12:49:06;;;;;;;2.37;1.02;;;26.10;97.30;;;;;;6708295;88;20274;-77
2021/07/28 12:59:07;;;;;;;3.30;1.20;;;25.60;96.10;;;;;;6690195;88;20256;-77
2021/07/28 13:09:07;;;;;;;2.42;1.10;;;25.60;96.00;;;;;;6706348;88;20190;-78
2021/07/28 13:19:08;;;;;;;1.98;1.30;;;25.50;96.10;;;;;;6707697;88;20207;-76
2021/07/28 13:29:08;;;;;;;2.65;1.02;;;26.20;95.90;;;;;;6707836;88;20213;-78
2021/07/28 13:39:09;;;;;;;5.35;1.40;;;24.90;96.30;;;;;;6690346;88;20690;-77
2021/07/28 13:49:10;;;;;;;3.15;1.33;;;24.70;96.30;;;;;;6688292;88;20839;-78
2021/07/28 13:59:11;;;;;;;3.10;1.33;;;25.60;96.30;;;;;;6708608;88;20209;-79
2021/07/28 14:09:12;;;;;;;3.58;1.25;;;24.80;96.00;;;;;;6707502;88;21123;-76
2021/07/28 14:19:19;;;;;;;3.15;1.30;;;25.10;96.90;;;;;;6703194;88;20478;-77
2021/07/28 14:29:19;;;;;;;2.25;1.25;;;25.80;95.40;;;;;;6703667;88;20239;-77
2021/07/28 14:39:21;;;;;;;2.15;1.30;;;25.50;95.80;;;;;;6704250;88;20622;-78
2021/07/28 14:49:21;;;;;;;2.78;1.20;;;26.60;93.90;;;;;;6705829;88;20822;-78
2021/07/28 14:59:22;;;;;;;3.55;1.30;;;26.40;94.00;;;;;;6704206;88;20222;-78
2021/07/28 15:09:23;;;;;;;2.20;1.35;;;25.70;93.40;;;;;;6703892;88;20215;-77
2021/07/28 15:19:24;;;;;;;2.92;1.90;;;25.30;94.10;;;;;;6720577;88;20166;-78
2021/07/28 15:29:25;;;;;;;3.25;1.40;;;24.80;93.80;;;;;;6707657;88;20182;-79
2021/07/28 15:39:25;;;;;;;2.60;1.25;;;25.10;93.20;;;;;;6726530;88;20207;-77
2021/07/28 15:49:26;;;;;;;2.97;1.48;;;24.10;94.70;;;;;;6708441;88;20371;-77
2021/07/28 15:59:26;;;;;;;2.03;1.33;;;24.10;94.70;;;;;;6702650;88;20204;-78
2021/07/28 16:09:27;;;;;;;3.85;1.42;;;24.40;95.00;;;;;;6691550;88;20209;-78
2021/07/28 16:19:27;;;;;;;2.30;1.40;;;24.40;94.90;;;;;;6634551;89;20804;-78
2021/07/28 16:29:28;;;;;;;2.55;1.20;;;23.90;95.20;;;;;;6692888;88;20685;-76
2021/07/28 16:39:29;;;;;;;6.35;1.60;;;24.10;95.50;;;;;;6703627;88;20194;-77
2021/07/28 16:49:31;;;;;;;3.03;1.50;;;24.60;95.30;;;;;;6705913;88;20179;-78
2021/07/28 16:59:31;;;;;;;3.08;1.50;;;23.70;95.90;;;;;;6704608;88;20495;-77
2021/07/28 17:09:35;;;;;;;4.63;1.70;;;23.30;96.70;;;;;;6702824;88;20240;-77
2021/07/28 17:19:35;;;;;;;4.00;1.47;;;23.10;96.70;;;;;;6703624;88;20321;-77
2021/07/28 17:29:38;;;;;;;3.03;1.25;;;22.70;96.90;;;;;;6703086;88;20239;-77
2021/07/28 17:39:38;;;;;;;4.25;1.80;;;22.50;98.00;;;;;;6700677;88;20228;-77
2021/07/28 17:49:39;;;;;;;2.78;1.50;;;22.30;98.80;;;;;;6703103;88;20689;-78
2021/07/28 17:59:39;;;;;;;3.95;1.70;;;22.30;99.50;;;;;;6702953;88;20202;-78
2021/07/28 18:09:40;;;;;;;3.47;1.50;;;22.30;99.90;;;;;;6704412;88;20187;-77
2021/07/28 18:19:42;;;;;;;4.35;1.75;;;22.30;99.90;;;;;;6703345;88;20228;-77
2021/07/28 18:29:44;;;;;;;4.37;1.80;;;22.00;99.90;;;;;;6705189;88;20182;-78
2021/07/28 18:39:44;;;;;;;3.47;1.70;;;21.90;99.90;;;;;;6706022;88;20214;-78
2021/07/28 18:49:45;;;;;;;3.97;1.70;;;21.40;99.90;;;;;;6705987;88;20190;-79
2021/07/28 18:59:45;;;;;;;5.27;1.70;;;21.40;99.90;;;;;;6706293;88;20619;-77
2021/07/28 19:09:46;;;;;;;5.45;1.90;;;21.20;99.90;;;;;;6706021;88;20650;-78
2021/07/28 19:19:46;;;;;;;3.60;1.73;;;21.10;99.90;;;;;;6703096;88;20193;-77
2021/07/28 19:29:47;;;;;;;3.30;1.83;;;21.00;99.90;;;;;;6706007;88;20191;-78
2021/07/28 19:39:48;;;;;;;4.95;1.95;;;20.70;99.90;;;;;;6705890;88;20210;-78
2021/07/28 19:49:48;;;;;;;4.65;1.95;;;20.60;99.90;;;;;;6705360;88;20696;-78
2021/07/28 19:59:49;;;;;;;3.28;1.85;;;20.60;99.90;;;;;;6705423;88;20324;-77
2021/07/28 20:09:49;;;;;;;4.85;1.87;;;20.50;99.90;;;;;;6697823;88;20232;-77
2021/07/28 20:19:50;;;;;;;4.78;2.15;;;20.20;99.90;;;;;;6699823;88;20348;-77
2021/07/28 20:29:51;;;;;;;5.75;1.80;;;19.90;99.90;;;;;;6698719;88;20205;-76
2021/07/28 20:39:51;;;;;;;7.80;1.80;;;19.80;99.90;;;;;;6698321;88;21118;-78
2021/07/28 20:49:52;;;;;;;3.10;1.98;;;19.60;99.90;;;;;;6701424;88;21983;-82
2021/07/28 20:59:52;;;;;;;6.07;1.80;;;19.30;99.90;;;;;;6719153;88;20844;-75
2021/07/28 21:09:53;;;;;;;4.68;1.92;;;19.10;99.90;;;;;;6711009;88;20520;-78
2021/07/28 21:19:53;;;;;;;3.08;1.92;;;19.00;99.90;;;;;;6718371;88;20209;-78
2021/07/28 21:29:54;;;;;;;4.40;2.00;;;18.70;99.90;;;;;;6697999;88;20252;-75
2021/07/28 21:39:54;;;;;;;3.08;2.00;;;18.50;99.90;;;;;;6698279;88;20256;-80
2021/07/28 21:50:03;;;;;;;4.63;2.00;;;18.30;99.90;;;;;;6702547;88;20209;-78
2021/07/28 22:00:04;;;;;;;3.50;1.90;;;18.30;99.90;;;;;;6699027;88;20638;-76
2021/07/28 22:10:05;;;;;;;4.25;1.80;;;18.20;99.90;;;;;;6698905;88;20210;-75
2021/07/28 22:20:07;;;;;;;3.03;1.90;;;18.20;99.90;;;;;;6698676;88;20239;-77
2021/07/28 22:30:08;;;;;;;4.10;2.00;;;18.30;99.90;;;;;;6698161;88;20291;-75
2021/07/28 22:40:10;;;;;;;5.78;2.10;;;18.40;99.90;;;;;;6698853;88;20228;-77
2021/07/28 23:00:41;;;;;;;5.05;2.33;;;18.30;99.90;;;;;;6701269;88;20189;-75
2021/07/28 23:10:42;;;;;;;3.65;1.90;;;18.40;99.90;;;;;;6701917;88;20199;-76
2021/07/28 23:20:42;;;;;;;5.65;1.85;;;18.30;99.90;;;;;;6701954;88;20261;-77
2021/07/28 23:30:43;;;;;;;3.65;1.80;;;18.50;99.90;;;;;;6700446;88;20203;-77
2021/07/28 23:40:50;;;;;;;3.40;1.90;;;18.50;99.90;;;;;;6700782;88;20190;-78
2021/07/28 23:50:51;;;;;;;2.50;1.60;;;18.60;99.90;;;;;;6701019;88;20193;-75
